createdAt,value
2023-03-05T00:00:45.784Z,55.21
2023-03-05T00:05:47.245Z,54.89
2023-03-05T00:10:56.165Z,54.92
2023-03-05T00:15:57.705Z,53.09
2023-03-05T00:20:59.267Z,53.33
2023-03-05T00:26:01.983Z,52.88
2023-03-05T00:31:03.525Z,53.74
2023-03-05T00:36:06.240Z,53.89
2023-03-05T00:41:08.275Z,54.05
2023-03-05T00:46:09.804Z,53.11
2023-03-05T00:51:11.372Z,51.91
2023-03-05T00:56:12.840Z,51.51
2023-03-05T01:01:14.311Z,53.16
2023-03-05T01:06:16.976Z,53.48
2023-03-05T01:11:18.546Z,53.92
2023-03-05T01:16:20.064Z,54.14
2023-03-05T01:21:22.014Z,54.74
2023-03-05T01:26:23.571Z,54.66
2023-03-05T01:31:25.134Z,56.67
2023-03-05T01:36:26.629Z,57.44
2023-03-05T01:41:28.090Z,56.24
2023-03-05T01:46:36.522Z,56.14
2023-03-05T01:51:48.201Z,55.29
2023-03-05T01:56:50.249Z,55.11
2023-03-05T02:01:53.222Z,52.47
2023-03-05T02:06:54.683Z,52.29
2023-03-05T02:11:56.197Z,51.77
2023-03-05T02:16:57.662Z,52.14
2023-03-05T02:21:59.176Z,51.03
2023-03-05T02:27:00.895Z,51.67
2023-03-05T02:32:02.466Z,51.74
2023-03-05T02:37:04.655Z,51.84
2023-03-05T02:42:06.653Z,53.48
2023-03-05T02:47:08.114Z,53.85
2023-03-05T02:52:09.592Z,53.38
2023-03-05T02:57:11.131Z,52.81
2023-03-05T03:02:12.678Z,50.68
2023-03-05T03:07:14.296Z,51.88
2023-03-05T03:12:15.751Z,54.24
2023-03-05T03:17:17.518Z,56.11
2023-03-05T03:22:19.130Z,55.48
2023-03-05T03:27:20.608Z,54.91
2023-03-05T03:32:22.098Z,56.71
2023-03-05T03:37:23.559Z,54.79
2023-03-05T03:42:25.186Z,54.00
2023-03-05T03:47:26.647Z,53.62
2023-03-05T03:52:28.135Z,53.99
2023-03-05T03:57:29.963Z,54.62
2023-03-05T04:02:31.425Z,55.34
2023-03-05T04:07:32.906Z,54.56
2023-03-05T04:12:34.368Z,54.55
2023-03-05T04:17:35.835Z,53.51
2023-03-05T04:22:37.480Z,54.03
2023-03-05T04:27:42.468Z,54.71
2023-03-05T04:32:43.921Z,55.95
2023-03-05T04:37:45.379Z,55.52
2023-03-05T04:42:46.845Z,56.47
2023-03-05T04:47:48.321Z,55.81
2023-03-05T04:52:49.781Z,54.93
2023-03-05T04:57:51.253Z,55.55
2023-03-05T05:02:52.897Z,54.92
2023-03-05T05:07:57.732Z,55.33
2023-03-05T05:12:59.202Z,55.66
2023-03-05T05:18:00.673Z,53.81
2023-03-05T05:23:02.156Z,51.66
2023-03-05T05:28:03.763Z,51.24
2023-03-05T05:33:05.208Z,50.23
2023-03-05T05:38:06.658Z,50.38
2023-03-05T05:43:08.452Z,52.75
2023-03-05T05:48:09.943Z,52.35
2023-03-05T05:53:11.403Z,53.81
2023-03-05T05:58:12.873Z,55.23
2023-03-05T06:03:14.547Z,54.10
2023-03-05T06:08:16.233Z,52.21
2023-03-05T06:13:17.816Z,51.91
2023-03-05T06:18:19.290Z,53.40
2023-03-05T06:23:20.802Z,52.93
2023-03-05T06:28:22.285Z,52.59
2023-03-05T06:33:25.193Z,52.27
2023-03-05T06:38:26.707Z,52.53
2023-03-05T06:43:28.191Z,52.67
2023-03-05T06:48:29.661Z,53.17
2023-03-05T06:53:31.252Z,53.05
2023-03-05T06:58:32.719Z,55.13
2023-03-05T07:03:35.209Z,54.36
2023-03-05T07:08:36.942Z,53.14
2023-03-05T07:13:38.502Z,53.21
2023-03-05T07:18:40.075Z,53.96
2023-03-05T07:23:41.561Z,53.22
2023-03-05T07:28:43.049Z,53.32
2023-03-05T07:33:45.411Z,53.56
2023-03-05T07:38:46.893Z,53.72
2023-03-05T07:43:48.630Z,54.42
2023-03-05T07:48:50.122Z,53.84
2023-03-05T07:53:52.095Z,53.90
2023-03-05T07:58:53.578Z,53.20
2023-03-05T08:03:55.119Z,51.90
2023-03-05T08:08:57.274Z,51.96
2023-03-05T08:13:59.460Z,51.43
2023-03-05T08:19:01.085Z,50.04
2023-03-05T08:24:07.129Z,48.65
2023-03-05T08:29:08.702Z,48.49
2023-03-05T08:34:10.159Z,48.28
2023-03-05T08:39:11.682Z,50.04
2023-03-05T08:44:13.183Z,51.72
2023-03-05T08:49:14.647Z,52.41
2023-03-05T08:54:16.113Z,52.22
2023-03-05T08:59:17.575Z,52.04
2023-03-05T09:04:19.098Z,51.34
2023-03-05T09:09:23.230Z,51.51
2023-03-05T09:14:24.718Z,52.38
2023-03-05T09:19:27.464Z,52.08
2023-03-05T09:24:28.959Z,51.57
2023-03-05T09:29:31.369Z,51.58
2023-03-05T09:34:34.521Z,51.87
2023-03-05T09:39:36.379Z,52.55
2023-03-05T09:44:46.873Z,53.18
2023-03-05T09:49:59.879Z,54.08
2023-03-05T09:55:01.492Z,55.34
2023-03-05T10:00:12.559Z,55.25
2023-03-05T10:05:25.142Z,55.11
2023-03-05T10:10:28.530Z,54.34
2023-03-05T10:15:39.252Z,53.50
2023-03-05T10:21:12.999Z,52.31
2023-03-05T10:26:41.915Z,52.45
2023-03-05T10:31:50.234Z,53.07
2023-03-05T10:37:17.578Z,52.11
2023-03-05T10:42:34.272Z,51.08
2023-03-05T10:47:48.689Z,50.66
2023-03-05T10:52:55.360Z,50.33
2023-03-05T10:57:56.832Z,49.99
2023-03-05T11:03:00.451Z,50.10
2023-03-05T11:08:10.047Z,49.65
2023-03-05T11:13:27.501Z,49.41
2023-03-05T11:18:34.260Z,49.95
2023-03-05T11:23:35.841Z,49.81
2023-03-05T11:28:40.503Z,49.24
2023-03-05T11:34:08.277Z,48.92
2023-03-05T11:39:09.768Z,49.78
2023-03-05T11:44:27.451Z,48.64
2023-03-05T11:49:29.876Z,49.89
2023-03-05T11:54:36.722Z,50.49
2023-03-05T11:59:40.243Z,50.52
2023-03-05T12:04:41.780Z,50.69
2023-03-05T12:09:46.696Z,50.71
2023-03-05T12:14:58.214Z,50.47
2023-03-05T12:20:06.505Z,50.13
2023-03-05T12:25:46.809Z,50.16
2023-03-05T12:30:48.131Z,49.58
2023-03-05T12:35:49.680Z,48.15
2023-03-05T12:40:51.175Z,46.87
2023-03-05T12:45:53.149Z,47.19
2023-03-05T12:50:58.224Z,47.83
2023-03-05T12:56:12.653Z,47.35
2023-03-05T13:01:43.500Z,48.18
2023-03-05T13:06:45.130Z,49.25
2023-03-05T13:11:48.433Z,49.60
2023-03-05T13:16:49.993Z,49.63
2023-03-05T13:22:04.254Z,50.38
2023-03-05T13:27:29.090Z,50.22
2023-03-05T13:32:32.036Z,49.16
2023-03-05T13:37:34.563Z,50.14
2023-03-05T13:42:36.769Z,50.33
2023-03-05T13:47:38.246Z,50.68
2023-03-05T13:52:39.710Z,50.62
2023-03-05T13:57:42.756Z,50.08
2023-03-05T14:02:44.399Z,50.09
2023-03-05T14:07:48.418Z,51.14
2023-03-05T14:12:50.140Z,51.08
2023-03-05T14:17:51.749Z,51.23
2023-03-05T14:22:57.829Z,51.03
2023-03-05T14:27:59.682Z,51.43
2023-03-05T14:33:01.168Z,51.95
2023-03-05T14:38:02.713Z,51.36
2023-03-05T14:43:05.320Z,52.29
2023-03-05T14:48:07.520Z,52.07
2023-03-05T14:53:10.735Z,51.75
2023-03-05T14:58:21.992Z,51.60
2023-03-05T15:03:23.624Z,52.00
2023-03-05T15:08:29.654Z,51.73
2023-03-05T15:13:31.723Z,51.30
2023-03-05T15:18:33.217Z,51.73
2023-03-05T15:23:38.059Z,51.33
2023-03-05T15:28:39.827Z,51.08
2023-03-05T15:33:41.835Z,51.27
2023-03-05T15:38:43.452Z,50.74
2023-03-05T15:43:44.947Z,51.20
2023-03-05T15:48:49.923Z,51.16
2023-03-05T15:53:51.397Z,50.97
2023-03-05T15:58:53.101Z,52.44
2023-03-05T16:03:54.620Z,52.01
2023-03-05T16:08:59.961Z,52.14
2023-03-05T16:14:06.446Z,52.53
2023-03-05T16:19:08.465Z,52.27
2023-03-05T16:24:09.927Z,52.58
2023-03-05T16:29:11.432Z,52.60
2023-03-05T16:34:14.138Z,51.92
2023-03-05T16:39:15.651Z,51.44
2023-03-05T16:44:17.141Z,52.02
2023-03-05T16:49:18.648Z,51.80
2023-03-05T16:54:21.861Z,52.39
2023-03-05T16:59:24.011Z,52.04
2023-03-05T17:04:25.538Z,51.99
2023-03-05T17:09:27.079Z,51.58
2023-03-05T17:14:28.580Z,51.47
2023-03-05T17:19:30.064Z,51.97
2023-03-05T17:24:32.883Z,51.16
2023-03-05T17:29:34.406Z,51.29
2023-03-05T17:34:37.098Z,52.29
2023-03-05T17:39:38.921Z,53.86
2023-03-05T17:44:40.376Z,54.88
2023-03-05T17:49:41.849Z,55.59
2023-03-05T17:54:43.299Z,54.82
2023-03-05T17:59:44.799Z,58.12
2023-03-05T18:04:47.881Z,57.95
2023-03-05T18:09:49.390Z,58.37
2023-03-05T18:14:50.889Z,58.43
2023-03-05T18:19:52.398Z,57.89
2023-03-05T18:24:54.011Z,57.96
2023-03-05T18:29:55.564Z,57.29
2023-03-05T18:34:57.047Z,56.76
2023-03-05T18:39:59.019Z,56.06
2023-03-05T18:45:01.194Z,56.56
2023-03-05T18:50:02.695Z,56.33
2023-03-05T18:55:04.399Z,55.55
2023-03-05T19:00:06.547Z,56.01
2023-03-05T19:05:08.362Z,57.02
2023-03-05T19:10:11.234Z,56.60
2023-03-05T19:15:13.006Z,54.93
2023-03-05T19:20:15.883Z,55.54
2023-03-05T19:25:17.490Z,56.63
2023-03-05T19:30:19.110Z,55.04
2023-03-05T19:35:20.682Z,54.58
2023-03-05T19:40:22.493Z,54.45
2023-03-05T19:45:23.974Z,54.47
2023-03-05T19:50:25.454Z,53.88
2023-03-05T19:55:26.999Z,54.23
2023-03-05T20:00:28.737Z,53.18
2023-03-05T20:05:30.229Z,51.52
2023-03-05T20:10:31.762Z,50.14
2023-03-05T20:15:33.269Z,51.94
2023-03-05T20:20:34.783Z,52.18
2023-03-05T20:25:38.143Z,51.96
2023-03-05T20:30:39.793Z,51.25
2023-03-05T20:35:41.356Z,50.61
2023-03-05T20:40:42.857Z,50.74
2023-03-05T20:45:44.372Z,49.67
2023-03-05T20:50:47.036Z,50.81
2023-03-05T20:55:48.587Z,50.66
2023-03-05T21:00:50.119Z,49.69
2023-03-05T21:05:51.671Z,50.13
2023-03-05T21:10:53.151Z,49.77
2023-03-05T21:15:54.740Z,50.18
2023-03-05T21:20:56.235Z,50.09
2023-03-05T21:25:57.765Z,49.91
2023-03-05T21:31:05.353Z,49.51
2023-03-05T21:36:07.649Z,49.63
2023-03-05T21:41:09.833Z,49.38
2023-03-05T21:46:11.392Z,49.09
2023-03-05T21:51:13.726Z,49.30
2023-03-05T21:56:15.662Z,49.34
2023-03-05T22:01:19.356Z,48.46
2023-03-05T22:06:21.016Z,48.83
2023-03-05T22:11:22.528Z,48.69
2023-03-05T22:16:25.379Z,48.79
2023-03-05T22:21:27.420Z,48.84
2023-03-05T22:26:39.163Z,49.67
2023-03-05T22:31:40.697Z,49.43
2023-03-05T22:36:42.202Z,49.39
2023-03-05T22:41:43.676Z,49.75
2023-03-05T22:46:45.165Z,49.04
2023-03-05T22:51:46.701Z,49.13
2023-03-05T22:56:48.177Z,49.94
2023-03-05T23:01:49.649Z,49.83
2023-03-05T23:06:51.157Z,50.45
2023-03-05T23:11:52.641Z,49.31
2023-03-05T23:16:54.119Z,49.71
2023-03-05T23:21:55.620Z,49.37
2023-03-05T23:26:57.143Z,49.86
2023-03-05T23:31:58.623Z,50.63
2023-03-05T23:37:00.289Z,51.02
2023-03-05T23:42:01.767Z,49.64
2023-03-05T23:47:03.271Z,50.12
2023-03-05T23:52:04.854Z,50.21
2023-03-05T23:57:06.351Z,51.27
